Time;durP1;ratioP1;P1;durP2;ratioP2;P2;SDS_P1;SDS_P2;PMS_P1;PMS_P2;Temp;Humidity;BMP_temperature;BMP_pressure;BME280_temperature;BME280_humidity;BME280_pressure;Samples;Min_cycle;Max_cycle;Signal;HPM_P1;HPM_P2
2023/01/25 08:52:52;;;;;;;12.45;11.18;;;;;;;;;;532566;27;20177;-68
2023/01/25 09:05:59;;;;;;;12.55;10.30;;;;;;;;;;176517;27;10002847;-66
2023/01/25 09:06:15;;;;;;;14.55;12.95;;;;;;;;;;525902;27;1821;-66
2023/01/25 09:06:31;;;;;;;15.70;14.00;;;;;;;;;;525877;28;1295;-66
2023/01/25 09:06:47;;;;;;;15.75;14.02;;;;;;;;;;523599;28;1459;-66
2023/01/25 09:07:02;;;;;;;15.20;13.43;;;;;;;;;;523352;28;1296;-66
2023/01/25 09:07:18;;;;;;;15.20;13.60;;;;;;;;;;521887;28;1290;-66
2023/01/25 09:07:37;;;;;;;15.90;14.15;;;;;;;;;;524144;28;997;-66
2023/01/25 09:07:52;;;;;;;15.73;13.85;;;;;;;;;;524197;28;1329;-67
2023/01/25 09:08:09;;;;;;;14.43;12.87;;;;;;;;;;528134;27;1438;-66
2023/01/25 09:08:25;;;;;;;14.20;12.77;;;;;;;;;;525864;28;1352;-66
2023/01/25 09:08:40;;;;;;;15.17;13.40;;;;;;;;;;524019;28;1531;-64
2023/01/25 09:08:58;;;;;;;15.50;13.80;;;;;;;;;;524484;28;1909;-64
2023/01/25 09:09:14;;;;;;;15.73;14.13;;;;;;;;;;524014;28;1692;-65
2023/01/25 09:09:29;;;;;;;15.98;14.27;;;;;;;;;;523089;28;1335;-65
2023/01/25 09:09:44;;;;;;;16.17;14.40;;;;;;;;;;522797;28;1512;-65
2023/01/25 09:10:00;;;;;;;16.53;14.67;;;;;;;;;;520978;28;1188;-65
2023/01/25 09:10:15;;;;;;;16.00;14.30;;;;;;;;;;524007;28;1264;-66
2023/01/25 09:10:31;;;;;;;14.90;13.30;;;;;;;;;;523934;28;1500;-65
2023/01/25 09:10:47;;;;;;;14.47;12.90;;;;;;;;;;524821;28;1319;-65
2023/01/25 09:11:07;;;;;;;14.70;13.10;;;;;;;;;;525890;28;1180;-65
2023/01/25 09:11:23;;;;;;;15.60;13.30;;;;;;;;;;522760;28;1330;-65
2023/01/25 09:11:39;;;;;;;15.15;12.93;;;;;;;;;;524234;28;1276;-65
2023/01/25 09:11:55;;;;;;;14.10;12.65;;;;;;;;;;521957;28;1419;-65
2023/01/25 09:12:10;;;;;;;13.40;12.00;;;;;;;;;;520051;28;1215;-64
2023/01/25 09:12:26;;;;;;;13.30;11.90;;;;;;;;;;522490;28;1697;-65
2023/01/25 09:12:41;;;;;;;14.13;12.30;;;;;;;;;;520557;28;1514;-65
2023/01/25 09:12:56;;;;;;;13.57;12.10;;;;;;;;;;522283;28;1958;-65
2023/01/25 09:13:13;;;;;;;13.45;12.05;;;;;;;;;;521528;28;1334;-65
2023/01/25 09:13:28;;;;;;;12.73;11.43;;;;;;;;;;522848;28;1550;-65
2023/01/25 09:13:44;;;;;;;12.60;11.30;;;;;;;;;;525229;28;1511;-65
2023/01/25 09:13:59;;;;;;;13.30;11.90;;;;;;;;;;523728;28;1719;-65
2023/01/25 09:14:14;;;;;;;13.47;12.07;;;;;;;;;;520898;28;1274;-65
2023/01/25 09:14:30;;;;;;;12.57;11.32;;;;;;;;;;521375;28;1341;-65
2023/01/25 09:14:45;;;;;;;11.70;10.50;;;;;;;;;;518167;28;1473;-65
2023/01/25 09:15:02;;;;;;;11.98;10.75;;;;;;;;;;519286;28;1454;-65
2023/01/25 09:15:18;;;;;;;12.57;11.27;;;;;;;;;;522537;28;1298;-65
2023/01/25 09:15:33;;;;;;;12.17;10.97;;;;;;;;;;521660;28;1840;-65
2023/01/25 09:15:48;;;;;;;12.33;11.07;;;;;;;;;;522615;28;1926;-67
2023/01/25 09:16:06;;;;;;;12.50;11.05;;;;;;;;;;521960;28;1166;-65
2023/01/25 09:16:27;;;;;;;11.48;10.27;;;;;;;;;;521510;28;1259;-65
2023/01/25 09:16:42;;;;;;;11.30;10.10;;;;;;;;;;522275;28;1497;-66
2023/01/25 09:16:58;;;;;;;11.87;10.67;;;;;;;;;;522552;28;1231;-65
2023/01/25 09:17:13;;;;;;;11.80;10.60;;;;;;;;;;520019;28;1718;-65
2023/01/25 09:17:28;;;;;;;12.20;10.98;;;;;;;;;;517614;28;1251;-64
2023/01/25 09:17:44;;;;;;;13.50;11.87;;;;;;;;;;515479;28;1537;-66
2023/01/25 09:17:59;;;;;;;13.63;11.80;;;;;;;;;;520303;28;1528;-65
2023/01/25 09:18:14;;;;;;;14.57;11.98;;;;;;;;;;521157;28;1380;-65
2023/01/25 09:18:31;;;;;;;16.97;12.47;;;;;;;;;;520683;28;1232;-64
2023/01/25 09:18:46;;;;;;;15.15;11.95;;;;;;;;;;523066;28;1610;-65
2023/01/25 09:19:04;;;;;;;13.63;11.67;;;;;;;;;;522361;28;1202;-65
2023/01/25 09:19:19;;;;;;;13.93;11.50;;;;;;;;;;522892;28;1324;-65
2023/01/25 09:19:34;;;;;;;14.88;11.43;;;;;;;;;;522458;28;1274;-66
2023/01/25 09:19:50;;;;;;;15.73;11.70;;;;;;;;;;523606;28;1186;-65
2023/01/25 09:20:06;;;;;;;15.90;11.60;;;;;;;;;;522414;28;1191;-65
2023/01/25 09:20:22;;;;;;;15.18;11.60;;;;;;;;;;522616;28;1606;-65
2023/01/25 09:20:39;;;;;;;15.30;12.38;;;;;;;;;;521775;28;1359;-65
2023/01/25 09:20:54;;;;;;;15.48;12.68;;;;;;;;;;521599;28;1515;-66
2023/01/25 09:21:12;;;;;;;15.05;12.38;;;;;;;;;;520498;28;1466;-65
2023/01/25 09:21:28;;;;;;;14.25;11.98;;;;;;;;;;521266;28;1395;-65
2023/01/25 09:21:44;;;;;;;14.98;12.00;;;;;;;;;;522552;28;1380;-65
2023/01/25 09:21:59;;;;;;;19.13;12.95;;;;;;;;;;521876;28;1287;-65
2023/01/25 09:22:14;;;;;;;24.93;13.73;;;;;;;;;;520457;28;1290;-65
2023/01/25 09:22:30;;;;;;;23.73;13.33;;;;;;;;;;519973;28;1567;-66
2023/01/25 09:22:46;;;;;;;31.23;14.13;;;;;;;;;;522859;28;1304;-65
2023/01/25 09:23:01;;;;;;;33.45;14.30;;;;;;;;;;520788;28;1480;-65
2023/01/25 09:23:21;;;;;;;21.33;12.20;;;;;;;;;;521679;28;1367;-66
2023/01/25 09:23:37;;;;;;;16.33;11.05;;;;;;;;;;521969;28;1709;-65
2023/01/25 09:23:53;;;;;;;18.23;11.40;;;;;;;;;;523396;28;1455;-65
2023/01/25 09:24:08;;;;;;;20.00;12.05;;;;;;;;;;519694;28;1695;-65
2023/01/25 09:24:24;;;;;;;34.15;13.80;;;;;;;;;;520884;28;1083;-66
2023/01/25 09:24:39;;;;;;;49.07;15.67;;;;;;;;;;519478;28;1417;-65
2023/01/25 09:24:55;;;;;;;57.80;17.23;;;;;;;;;;519390;28;1504;-65
2023/01/25 09:25:10;;;;;;;59.45;17.60;;;;;;;;;;520975;28;1807;-65
2023/01/25 09:25:26;;;;;;;38.05;14.27;;;;;;;;;;521276;28;1236;-65
2023/01/25 09:25:41;;;;;;;36.03;13.57;;;;;;;;;;522446;28;1518;-65
2023/01/25 09:25:59;;;;;;;42.07;14.47;;;;;;;;;;522165;28;1454;-65
2023/01/25 09:26:14;;;;;;;29.35;13.00;;;;;;;;;;524186;28;1079;-65
2023/01/25 09:26:30;;;;;;;22.20;11.77;;;;;;;;;;521614;28;1376;-66
2023/01/25 09:26:46;;;;;;;17.52;11.02;;;;;;;;;;519650;28;1409;-66
2023/01/25 09:27:01;;;;;;;13.70;10.37;;;;;;;;;;520078;28;1118;-65
2023/01/25 09:27:17;;;;;;;11.40;10.10;;;;;;;;;;523114;28;1094;-66
2023/01/25 09:27:32;;;;;;;12.25;10.95;;;;;;;;;;522697;28;1432;-66
2023/01/25 09:27:49;;;;;;;11.67;10.47;;;;;;;;;;523736;27;1665;-66
2023/01/25 09:28:10;;;;;;;11.27;10.18;;;;;;;;;;524763;28;1410;-65
2023/01/25 09:28:26;;;;;;;11.30;10.07;;;;;;;;;;522491;28;1531;-65
2023/01/25 09:28:45;;;;;;;12.85;10.45;;;;;;;;;;523698;28;1241;-65
2023/01/25 09:29:01;;;;;;;12.77;10.73;;;;;;;;;;523000;28;1411;-65
2023/01/25 09:29:16;;;;;;;11.55;10.35;;;;;;;;;;523291;28;2432;-64
2023/01/25 09:29:32;;;;;;;11.50;10.40;;;;;;;;;;525321;28;1348;-64
2023/01/25 09:29:47;;;;;;;11.80;10.60;;;;;;;;;;522615;28;1186;-65
2023/01/25 09:30:07;;;;;;;12.20;10.80;;;;;;;;;;525381;28;1319;-65
2023/01/25 09:30:22;;;;;;;12.40;10.88;;;;;;;;;;522434;28;1489;-66
2023/01/25 09:30:38;;;;;;;11.90;10.60;;;;;;;;;;522667;28;1519;-65
2023/01/25 09:31:03;;;;;;;11.88;10.57;;;;;;;;;;521810;28;1286;-65
2023/01/25 09:31:20;;;;;;;11.35;10.15;;;;;;;;;;522320;28;1254;-64
2023/01/25 09:31:38;;;;;;;11.13;9.98;;;;;;;;;;519323;28;1651;-64
2023/01/25 09:31:54;;;;;;;11.68;10.30;;;;;;;;;;522623;28;1224;-65
2023/01/25 09:32:09;;;;;;;12.18;10.88;;;;;;;;;;523821;28;1195;-66
2023/01/25 09:32:25;;;;;;;12.00;10.80;;;;;;;;;;523276;28;1377;-65
2023/01/25 09:32:40;;;;;;;11.50;10.40;;;;;;;;;;524956;28;1218;-65
2023/01/25 09:32:55;;;;;;;11.43;10.33;;;;;;;;;;525404;28;1395;-64
2023/01/25 09:33:15;;;;;;;11.80;10.60;;;;;;;;;;524336;28;1585;-64
2023/01/25 09:33:33;;;;;;;12.38;11.07;;;;;;;;;;521352;28;1508;-65
2023/01/25 09:33:50;;;;;;;16.55;12.20;;;;;;;;;;522060;28;1341;-64
2023/01/25 09:34:05;;;;;;;23.73;13.95;;;;;;;;;;522212;28;1375;-64
2023/01/25 09:34:21;;;;;;;27.52;14.43;;;;;;;;;;520660;28;1314;-64
2023/01/25 09:34:36;;;;;;;30.93;14.63;;;;;;;;;;521946;28;1548;-64
2023/01/25 09:34:51;;;;;;;54.77;18.33;;;;;;;;;;523059;28;1400;-65
2023/01/25 09:35:07;;;;;;;54.05;18.77;;;;;;;;;;523152;28;1415;-65
2023/01/25 09:35:22;;;;;;;43.80;18.13;;;;;;;;;;522603;28;1351;-65
2023/01/25 09:35:37;;;;;;;81.57;24.77;;;;;;;;;;522698;28;1554;-65
2023/01/25 09:35:53;;;;;;;69.43;22.75;;;;;;;;;;520032;28;1273;-64
2023/01/25 09:36:09;;;;;;;30.10;15.48;;;;;;;;;;522076;28;1648;-66
2023/01/25 09:36:25;;;;;;;27.48;14.10;;;;;;;;;;520651;28;1440;-65
2023/01/25 09:36:41;;;;;;;134.10;30.97;;;;;;;;;;518449;28;1254;-65
2023/01/25 09:36:56;;;;;;;266.80;51.72;;;;;;;;;;518649;28;1233;-65
2023/01/25 09:37:11;;;;;;;230.83;46.03;;;;;;;;;;520937;28;1396;-66
2023/01/25 09:37:27;;;;;;;110.20;27.83;;;;;;;;;;520080;28;1371;-65
2023/01/25 09:37:42;;;;;;;42.43;17.77;;;;;;;;;;519489;28;1207;-65
2023/01/25 09:37:57;;;;;;;47.83;18.13;;;;;;;;;;523159;28;1518;-65
2023/01/25 09:38:12;;;;;;;43.45;16.23;;;;;;;;;;522473;28;1201;-65
2023/01/25 09:38:28;;;;;;;29.47;13.97;;;;;;;;;;523128;28;1304;-65
2023/01/25 09:38:44;;;;;;;29.17;14.10;;;;;;;;;;520277;28;1280;-65
2023/01/25 09:39:00;;;;;;;28.88;13.95;;;;;;;;;;522624;28;1446;-65
2023/01/25 09:39:15;;;;;;;22.53;12.80;;;;;;;;;;521885;28;1260;-65
2023/01/25 09:39:30;;;;;;;23.02;13.35;;;;;;;;;;523634;28;1328;-65
2023/01/25 09:39:46;;;;;;;29.37;14.73;;;;;;;;;;523285;28;1428;-65
2023/01/25 09:40:02;;;;;;;29.93;14.40;;;;;;;;;;522708;28;1443;-65
2023/01/25 09:40:20;;;;;;;25.40;13.57;;;;;;;;;;520373;28;1421;-66
2023/01/25 09:40:38;;;;;;;25.20;13.60;;;;;;;;;;523829;28;1367;-65
2023/01/25 09:41:29;;;;;;;22.65;12.45;;;;;;;;;;523179;28;1350;-65
2023/01/25 09:42:21;;;;;;;13.50;10.98;;;;;;;;;;526846;28;1359;-66
2023/01/25 09:42:55;;;;;;;15.52;11.45;;;;;;;;;;525970;28;1403;-65
2023/01/25 09:43:25;;;;;;;13.05;11.07;;;;;;;;;;527235;28;1409;-65
2023/01/25 09:43:59;;;;;;;11.40;10.20;;;;;;;;;;524862;28;1321;-65
2023/01/25 09:44:27;;;;;;;12.55;11.25;;;;;;;;;;525056;28;1298;-65
2023/01/25 09:44:45;;;;;;;12.00;10.70;;;;;;;;;;526563;28;1400;-65
2023/01/25 09:45:12;;;;;;;12.40;10.90;;;;;;;;;;526175;28;1163;-65
2023/01/25 09:45:33;;;;;;;12.77;10.63;;;;;;;;;;524809;28;1320;-65
2023/01/25 09:45:49;;;;;;;11.27;10.07;;;;;;;;;;524220;28;2060;-65
2023/01/25 09:46:18;;;;;;;11.25;10.02;;;;;;;;;;520874;28;1443;-65
2023/01/25 09:46:43;;;;;;;12.50;11.10;;;;;;;;;;521462;28;1324;-65
2023/01/25 09:47:03;;;;;;;12.52;11.23;;;;;;;;;;522841;28;1664;-65
2023/01/25 09:47:29;;;;;;;11.90;10.70;;;;;;;;;;522849;28;1047;-64
2023/01/25 09:48:03;;;;;;;12.05;10.85;;;;;;;;;;521403;28;1771;-65
2023/01/25 09:48:30;;;;;;;11.68;10.48;;;;;;;;;;523658;28;1526;-65
2023/01/25 09:49:06;;;;;;;11.98;10.70;;;;;;;;;;526743;27;1453;-64
2023/01/25 09:49:36;;;;;;;11.35;10.25;;;;;;;;;;522816;28;1727;-65
2023/01/25 09:50:00;;;;;;;11.52;10.32;;;;;;;;;;519935;28;1249;-65
2023/01/25 09:50:26;;;;;;;12.90;10.68;;;;;;;;;;520033;28;1177;-64
2023/01/25 09:50:59;;;;;;;12.43;11.13;;;;;;;;;;527652;27;1399;-64
2023/01/25 09:51:44;;;;;;;13.02;11.55;;;;;;;;;;526865;28;1263;-65
2023/01/25 09:52:29;;;;;;;12.93;11.63;;;;;;;;;;524493;28;1699;-64
2023/01/25 09:52:53;;;;;;;12.45;11.15;;;;;;;;;;527365;27;1278;-64
2023/01/25 09:53:18;;;;;;;12.50;11.20;;;;;;;;;;526932;28;1551;-65
2023/01/25 09:53:37;;;;;;;13.25;11.30;;;;;;;;;;528373;27;1374;-65
2023/01/25 09:53:55;;;;;;;12.35;11.02;;;;;;;;;;527944;27;1526;-65
2023/01/25 09:54:12;;;;;;;12.10;10.90;;;;;;;;;;527156;27;1752;-65
2023/01/25 09:54:30;;;;;;;12.25;10.98;;;;;;;;;;526269;27;1409;-65
2023/01/25 09:54:47;;;;;;;12.43;11.02;;;;;;;;;;526494;28;1330;-65
2023/01/25 09:55:12;;;;;;;12.98;11.55;;;;;;;;;;523799;28;1313;-65
2023/01/25 09:55:29;;;;;;;13.48;11.23;;;;;;;;;;522523;28;1346;-65
2023/01/25 09:55:50;;;;;;;13.35;10.82;;;;;;;;;;520949;28;1404;-65
2023/01/25 09:56:11;;;;;;;11.73;10.43;;;;;;;;;;519092;28;1219;-65
2023/01/25 09:56:34;;;;;;;11.50;10.35;;;;;;;;;;520955;28;1442;-65
2023/01/25 09:56:50;;;;;;;11.60;10.00;;;;;;;;;;520921;28;1242;-65
2023/01/25 09:57:19;;;;;;;11.80;10.48;;;;;;;;;;520734;28;1243;-65
2023/01/25 09:57:40;;;;;;;12.48;10.65;;;;;;;;;;520481;28;1864;-65
2023/01/25 09:58:00;;;;;;;15.52;11.23;;;;;;;;;;523314;28;1268;-65
2023/01/25 09:58:21;;;;;;;25.60;13.35;;;;;;;;;;523317;28;1808;-65
2023/01/25 09:58:41;;;;;;;35.55;15.13;;;;;;;;;;521974;28;1325;-65
2023/01/25 09:59:02;;;;;;;21.60;12.93;;;;;;;;;;523038;28;1829;-65
2023/01/25 09:59:22;;;;;;;17.92;11.77;;;;;;;;;;523973;28;1542;-66
2023/01/25 09:59:39;;;;;;;17.00;11.32;;;;;;;;;;526998;27;1403;-66
2023/01/25 09:59:55;;;;;;;17.80;11.90;;;;;;;;;;526018;27;1246;-65
2023/01/25 10:00:18;;;;;;;17.37;12.20;;;;;;;;;;524045;28;1665;-65
2023/01/25 10:00:41;;;;;;;15.70;11.65;;;;;;;;;;521566;28;1680;-65
2023/01/25 10:01:08;;;;;;;12.27;10.85;;;;;;;;;;522247;28;1491;-65
2023/01/25 10:01:45;;;;;;;12.07;10.20;;;;;;;;;;523054;28;1451;-65
2023/01/25 10:02:27;;;;;;;13.85;10.90;;;;;;;;;;521455;28;2019;-66
2023/01/25 10:02:50;;;;;;;12.25;10.48;;;;;;;;;;526520;28;1335;-65
2023/01/25 10:03:22;;;;;;;11.80;10.43;;;;;;;;;;524572;28;1368;-65
2023/01/25 10:03:42;;;;;;;11.93;10.70;;;;;;;;;;522506;28;1388;-65
2023/01/25 10:03:59;;;;;;;11.57;10.38;;;;;;;;;;521430;28;1584;-65
2023/01/25 10:04:26;;;;;;;11.32;10.13;;;;;;;;;;522291;28;1419;-66
2023/01/25 10:04:44;;;;;;;11.77;10.55;;;;;;;;;;522201;28;1231;-66
2023/01/25 10:05:10;;;;;;;12.18;10.88;;;;;;;;;;522181;28;1091;-66
2023/01/25 10:05:29;;;;;;;11.30;10.20;;;;;;;;;;521962;28;1832;-65
2023/01/25 10:05:48;;;;;;;11.15;10.05;;;;;;;;;;523737;28;1991;-65
2023/01/25 10:06:03;;;;;;;11.68;10.48;;;;;;;;;;524244;28;1224;-66
2023/01/25 10:06:22;;;;;;;11.50;10.30;;;;;;;;;;524768;28;1485;-65
2023/01/25 10:06:41;;;;;;;11.35;10.18;;;;;;;;;;525024;28;1266;-66
2023/01/25 10:07:01;;;;;;;11.25;10.15;;;;;;;;;;524870;28;1539;-65
2023/01/25 10:07:37;;;;;;;12.05;10.85;;;;;;;;;;522794;28;1761;-65
2023/01/25 10:08:20;;;;;;;12.02;10.80;;;;;;;;;;523371;28;1353;-65
2023/01/25 10:09:07;;;;;;;12.50;11.20;;;;;;;;;;525494;27;1218;-66
2023/01/25 10:09:50;;;;;;;12.35;11.05;;;;;;;;;;526173;28;1751;-65
2023/01/25 10:10:12;;;;;;;12.65;11.35;;;;;;;;;;526517;28;1659;-66
2023/01/25 10:10:40;;;;;;;12.05;10.85;;;;;;;;;;525739;28;1353;-66
2023/01/25 10:11:10;;;;;;;12.75;11.45;;;;;;;;;;522007;28;1310;-66
2023/01/25 10:11:30;;;;;;;12.40;11.13;;;;;;;;;;522871;28;1378;-66
2023/01/25 10:11:46;;;;;;;12.82;11.52;;;;;;;;;;524630;28;1585;-66
2023/01/25 10:12:14;;;;;;;13.02;11.70;;;;;;;;;;522198;28;1266;-66
2023/01/25 10:12:34;;;;;;;12.25;10.98;;;;;;;;;;525561;27;1073;-65
2023/01/25 10:12:50;;;;;;;12.18;10.88;;;;;;;;;;527352;27;1145;-66
2023/01/25 10:13:14;;;;;;;12.77;11.23;;;;;;;;;;523153;28;1291;-65
2023/01/25 10:13:30;;;;;;;12.43;11.13;;;;;;;;;;523863;28;1328;-65
2023/01/25 10:13:46;;;;;;;11.95;10.68;;;;;;;;;;523900;28;1294;-65
2023/01/25 10:14:01;;;;;;;12.10;10.90;;;;;;;;;;525256;28;1289;-66
2023/01/25 10:14:18;;;;;;;12.63;11.32;;;;;;;;;;524684;28;1303;-66
2023/01/25 10:14:34;;;;;;;12.70;11.40;;;;;;;;;;525172;28;1415;-65
2023/01/25 10:14:50;;;;;;;12.52;11.23;;;;;;;;;;523597;28;1357;-65
2023/01/25 10:15:38;;;;;;;12.20;10.90;;;;;;;;;;524532;28;1498;-66
2023/01/25 10:16:02;;;;;;;12.00;10.80;;;;;;;;;;524627;28;1346;-66
2023/01/25 10:16:28;;;;;;;12.30;10.98;;;;;;;;;;524262;28;1501;-66
2023/01/25 10:16:46;;;;;;;12.18;10.88;;;;;;;;;;521594;28;1373;-66
2023/01/25 10:17:08;;;;;;;12.18;10.90;;;;;;;;;;524538;28;1246;-66
2023/01/25 10:17:34;;;;;;;12.35;11.05;;;;;;;;;;524112;28;1474;-65
2023/01/25 10:18:08;;;;;;;12.70;11.40;;;;;;;;;;524172;28;1469;-66
2023/01/25 10:18:48;;;;;;;12.57;11.27;;;;;;;;;;522585;28;1326;-66
2023/01/25 10:19:15;;;;;;;13.07;11.68;;;;;;;;;;522434;28;1234;-65
2023/01/25 10:19:33;;;;;;;13.35;11.95;;;;;;;;;;520898;28;1320;-66
2023/01/25 10:20:04;;;;;;;13.05;11.75;;;;;;;;;;520663;28;1484;-65
2023/01/25 10:20:39;;;;;;;12.02;10.82;;;;;;;;;;519837;28;1417;-66
2023/01/25 10:20:57;;;;;;;12.32;11.02;;;;;;;;;;520976;28;1281;-65
2023/01/25 10:22:07;;;;;;;11.93;10.73;;;;;;;;;;521339;28;1288;-66
2023/01/25 10:22:31;;;;;;;12.75;11.40;;;;;;;;;;521742;28;1451;-66
2023/01/25 10:23:19;;;;;;;13.57;12.18;;;;;;;;;;520274;28;1635;-66
2023/01/25 10:23:48;;;;;;;12.80;11.50;;;;;;;;;;519130;28;1544;-65
2023/01/25 10:24:29;;;;;;;12.60;11.30;;;;;;;;;;516914;28;1362;-66
2023/01/25 10:24:53;;;;;;;13.95;12.13;;;;;;;;;;518741;28;1071;-65
2023/01/25 10:25:23;;;;;;;13.10;11.70;;;;;;;;;;521897;28;1484;-66
2023/01/25 10:25:46;;;;;;;13.63;12.15;;;;;;;;;;525363;28;1293;-66
2023/01/25 10:26:22;;;;;;;13.77;12.20;;;;;;;;;;525350;28;1385;-66
2023/01/25 10:26:41;;;;;;;13.30;11.90;;;;;;;;;;525762;28;1145;-66
2023/01/25 10:27:02;;;;;;;13.00;11.60;;;;;;;;;;525181;27;1362;-66
2023/01/25 10:27:20;;;;;;;13.93;12.13;;;;;;;;;;523552;28;1257;-65
2023/01/25 10:27:52;;;;;;;14.30;12.68;;;;;;;;;;523453;28;1518;-66
2023/01/25 10:28:15;;;;;;;13.73;12.32;;;;;;;;;;523395;28;1396;-66
2023/01/25 10:28:41;;;;;;;12.50;11.20;;;;;;;;;;524373;28;1074;-66
2023/01/25 10:29:18;;;;;;;12.57;11.27;;;;;;;;;;523303;28;1170;-66
2023/01/25 10:29:36;;;;;;;13.15;11.60;;;;;;;;;;525712;28;1309;-66
2023/01/25 10:29:56;;;;;;;13.15;11.73;;;;;;;;;;522950;28;1301;-66
2023/01/25 10:30:32;;;;;;;13.13;11.80;;;;;;;;;;524027;28;1357;-65
2023/01/25 10:31:03;;;;;;;13.18;11.77;;;;;;;;;;521403;28;1371;-66
2023/01/25 10:31:24;;;;;;;13.32;11.93;;;;;;;;;;522962;28;1134;-66
2023/01/25 10:31:52;;;;;;;12.38;11.07;;;;;;;;;;525631;28;1065;-66
2023/01/25 10:32:33;;;;;;;12.90;11.60;;;;;;;;;;524995;28;1353;-66
2023/01/25 10:32:51;;;;;;;12.90;11.50;;;;;;;;;;528353;27;1440;-66
2023/01/25 10:33:16;;;;;;;13.10;11.70;;;;;;;;;;527250;27;1374;-66
2023/01/25 10:33:36;;;;;;;12.73;11.38;;;;;;;;;;526912;27;1285;-65
2023/01/25 10:33:54;;;;;;;12.68;11.38;;;;;;;;;;526068;28;1269;-66
2023/01/25 10:34:30;;;;;;;12.55;11.25;;;;;;;;;;525947;28;1238;-66
2023/01/25 10:34:49;;;;;;;12.60;11.30;;;;;;;;;;525245;28;2209;-65
2023/01/25 10:35:20;;;;;;;13.60;11.77;;;;;;;;;;525086;28;1673;-65
2023/01/25 10:35:37;;;;;;;12.57;11.27;;;;;;;;;;525160;28;1030;-66
2023/01/25 10:35:54;;;;;;;12.18;10.98;;;;;;;;;;523350;28;1313;-65
2023/01/25 10:36:16;;;;;;;12.20;11.00;;;;;;;;;;523778;28;1719;-66
2023/01/25 10:36:31;;;;;;;12.73;11.43;;;;;;;;;;523197;28;1011;-66
2023/01/25 10:36:54;;;;;;;12.60;11.30;;;;;;;;;;524179;28;1392;-66
2023/01/25 10:37:21;;;;;;;12.43;11.13;;;;;;;;;;521980;28;1388;-66
2023/01/25 10:37:37;;;;;;;12.57;11.20;;;;;;;;;;522270;28;1374;-66
2023/01/25 10:37:52;;;;;;;12.80;11.40;;;;;;;;;;519101;28;1183;-66
2023/01/25 10:38:28;;;;;;;12.30;11.00;;;;;;;;;;520529;28;1431;-66
2023/01/25 10:38:47;;;;;;;12.82;11.48;;;;;;;;;;521137;28;1270;-66
2023/01/25 10:39:06;;;;;;;12.80;11.50;;;;;;;;;;521805;28;1274;-66
2023/01/25 10:39:22;;;;;;;12.50;11.27;;;;;;;;;;522337;28;1317;-66
2023/01/25 10:39:45;;;;;;;12.10;10.90;;;;;;;;;;522594;28;1070;-66
2023/01/25 10:40:13;;;;;;;12.80;11.40;;;;;;;;;;523649;28;1102;-66
2023/01/25 10:40:38;;;;;;;13.07;11.65;;;;;;;;;;520447;28;1408;-66
2023/01/25 10:41:05;;;;;;;12.60;11.32;;;;;;;;;;520106;28;1660;-66
2023/01/25 10:41:27;;;;;;;12.32;11.02;;;;;;;;;;525993;28;1369;-66
2023/01/25 10:41:47;;;;;;;12.45;11.18;;;;;;;;;;523866;28;1357;-66
2023/01/25 10:42:11;;;;;;;12.57;11.27;;;;;;;;;;520929;28;1271;-66
2023/01/25 10:42:30;;;;;;;13.00;11.57;;;;;;;;;;519958;28;1680;-66
2023/01/25 10:43:06;;;;;;;13.23;11.80;;;;;;;;;;520119;28;1250;-65
2023/01/25 10:43:22;;;;;;;12.88;11.57;;;;;;;;;;521186;28;1436;-66
2023/01/25 10:43:37;;;;;;;12.55;11.32;;;;;;;;;;522895;28;1235;-65
2023/01/25 10:44:27;;;;;;;12.25;10.95;;;;;;;;;;525342;28;1061;-66
2023/01/25 10:44:43;;;;;;;12.18;10.95;;;;;;;;;;526925;27;1290;-65
2023/01/25 10:44:58;;;;;;;12.37;11.07;;;;;;;;;;528458;27;1002;-66
2023/01/25 10:45:16;;;;;;;12.52;11.23;;;;;;;;;;524905;28;1306;-66
2023/01/25 10:45:31;;;;;;;12.77;11.48;;;;;;;;;;524794;28;1608;-65
2023/01/25 10:45:49;;;;;;;12.73;11.43;;;;;;;;;;525796;27;1906;-66
2023/01/25 10:46:17;;;;;;;12.88;11.52;;;;;;;;;;523361;28;1322;-66
2023/01/25 10:46:32;;;;;;;12.88;11.45;;;;;;;;;;525657;28;1448;-66
2023/01/25 10:47:06;;;;;;;12.90;11.50;;;;;;;;;;523223;28;1166;-66
2023/01/25 10:47:30;;;;;;;12.85;11.55;;;;;;;;;;523628;28;1421;-66
2023/01/25 10:48:02;;;;;;;12.35;11.05;;;;;;;;;;521201;28;1432;-66
2023/01/25 10:48:21;;;;;;;13.05;11.68;;;;;;;;;;521058;28;1319;-65
2023/01/25 10:48:37;;;;;;;13.23;11.82;;;;;;;;;;520216;28;1468;-65
2023/01/25 10:48:53;;;;;;;12.63;11.32;;;;;;;;;;522139;28;1186;-66
2023/01/25 10:49:24;;;;;;;12.85;11.55;;;;;;;;;;522388;28;1365;-65
2023/01/25 10:49:55;;;;;;;12.90;11.50;;;;;;;;;;522579;28;1299;-66
2023/01/25 10:50:45;;;;;;;12.98;11.63;;;;;;;;;;522375;28;1448;-66
2023/01/25 10:51:01;;;;;;;12.57;11.27;;;;;;;;;;522180;28;1166;-66
2023/01/25 10:51:34;;;;;;;12.73;11.40;;;;;;;;;;522272;28;1244;-65
2023/01/25 10:51:49;;;;;;;12.32;11.02;;;;;;;;;;520776;28;1322;-65
2023/01/25 10:52:22;;;;;;;12.27;10.83;;;;;;;;;;522778;28;1321;-66
2023/01/25 10:52:38;;;;;;;12.73;10.90;;;;;;;;;;522579;28;1393;-66
2023/01/25 10:52:57;;;;;;;11.93;10.57;;;;;;;;;;521119;28;1309;-66
2023/01/25 10:53:38;;;;;;;11.93;10.73;;;;;;;;;;521190;28;1369;-66
2023/01/25 10:54:04;;;;;;;12.98;11.40;;;;;;;;;;511906;28;1378;-65
2023/01/25 10:54:21;;;;;;;12.70;11.05;;;;;;;;;;518312;28;1278;-65
2023/01/25 10:54:36;;;;;;;12.15;10.85;;;;;;;;;;519788;28;1387;-66
2023/01/25 10:55:13;;;;;;;12.07;10.77;;;;;;;;;;519337;28;1253;-65
2023/01/25 10:55:29;;;;;;;12.07;10.88;;;;;;;;;;518493;28;1254;-65
2023/01/25 10:56:24;;;;;;;12.50;11.20;;;;;;;;;;520554;28;1146;-65
2023/01/25 10:56:42;;;;;;;12.35;11.05;;;;;;;;;;525645;28;1097;-66
2023/01/25 10:56:57;;;;;;;12.40;11.10;;;;;;;;;;526468;28;1380;-66
2023/01/25 10:57:17;;;;;;;11.95;10.70;;;;;;;;;;526147;28;1254;-66
2023/01/25 10:57:34;;;;;;;12.07;10.85;;;;;;;;;;525404;27;1607;-66
2023/01/25 10:57:53;;;;;;;12.93;11.63;;;;;;;;;;523980;28;1361;-65
2023/01/25 10:58:29;;;;;;;14.05;12.13;;;;;;;;;;520152;28;1689;-66
2023/01/25 10:58:47;;;;;;;14.15;12.00;;;;;;;;;;518634;28;2006;-66
2023/01/25 10:59:12;;;;;;;12.45;11.15;;;;;;;;;;520027;28;1484;-66
2023/01/25 10:59:27;;;;;;;13.88;12.13;;;;;;;;;;519077;28;1251;-66
2023/01/25 10:59:45;;;;;;;13.63;12.18;;;;;;;;;;521238;28;1221;-66
2023/01/25 11:00:09;;;;;;;12.75;11.45;;;;;;;;;;521752;28;1239;-66
2023/01/25 11:00:31;;;;;;;13.90;12.40;;;;;;;;;;521405;28;1750;-66
2023/01/25 11:00:50;;;;;;;13.35;11.95;;;;;;;;;;522288;28;1285;-66
2023/01/25 11:01:25;;;;;;;14.07;11.88;;;;;;;;;;519884;28;1262;-66
2023/01/25 11:01:41;;;;;;;13.00;11.57;;;;;;;;;;518657;28;1257;-66
2023/01/25 11:02:25;;;;;;;12.43;11.13;;;;;;;;;;520239;28;1231;-65
2023/01/25 11:02:45;;;;;;;13.23;11.82;;;;;;;;;;522658;28;1230;-66
2023/01/25 11:03:01;;;;;;;12.88;11.57;;;;;;;;;;523004;28;1325;-65
2023/01/25 11:03:20;;;;;;;12.50;11.20;;;;;;;;;;521416;28;1428;-65
2023/01/25 11:03:40;;;;;;;12.35;11.05;;;;;;;;;;522974;28;1491;-66
2023/01/25 11:03:56;;;;;;;12.60;11.30;;;;;;;;;;522154;28;1477;-65
2023/01/25 11:04:34;;;;;;;12.57;11.27;;;;;;;;;;519388;28;1544;-66
2023/01/25 11:04:49;;;;;;;13.10;11.70;;;;;;;;;;521236;28;1503;-66
2023/01/25 11:05:29;;;;;;;13.10;11.70;;;;;;;;;;521919;28;1300;-66
2023/01/25 11:05:53;;;;;;;12.95;11.57;;;;;;;;;;523639;28;1471;-66
2023/01/25 11:06:09;;;;;;;13.43;12.00;;;;;;;;;;526009;28;1140;-66
2023/01/25 11:06:32;;;;;;;13.57;12.03;;;;;;;;;;522288;28;1211;-65
2023/01/25 11:06:50;;;;;;;12.40;11.10;;;;;;;;;;520617;28;1792;-66
2023/01/25 11:07:25;;;;;;;12.65;11.30;;;;;;;;;;522265;28;1882;-65
2023/01/25 11:07:41;;;;;;;13.02;11.32;;;;;;;;;;520120;28;1478;-66
2023/01/25 11:07:57;;;;;;;13.07;11.67;;;;;;;;;;519571;28;1405;-66
2023/01/25 11:08:30;;;;;;;14.10;11.80;;;;;;;;;;521839;28;1779;-66
2023/01/25 11:08:46;;;;;;;12.88;11.57;;;;;;;;;;522004;28;1292;-66
2023/01/25 11:09:21;;;;;;;13.00;11.67;;;;;;;;;;521292;28;1282;-66
2023/01/25 11:09:38;;;;;;;13.65;12.02;;;;;;;;;;521161;28;1247;-66
2023/01/25 11:09:53;;;;;;;13.68;11.95;;;;;;;;;;522159;28;1286;-65
2023/01/25 11:10:33;;;;;;;13.25;11.63;;;;;;;;;;522408;28;1314;-66
2023/01/25 11:10:48;;;;;;;12.38;11.07;;;;;;;;;;520611;28;1352;-66
2023/01/25 11:11:31;;;;;;;12.60;11.30;;;;;;;;;;522881;28;1007;-65
2023/01/25 11:11:58;;;;;;;12.98;11.52;;;;;;;;;;521885;28;1286;-66
2023/01/25 11:12:18;;;;;;;12.55;11.13;;;;;;;;;;522373;28;1270;-65
2023/01/25 11:12:33;;;;;;;12.93;11.52;;;;;;;;;;522694;28;1173;-65
2023/01/25 11:13:15;;;;;;;14.07;12.13;;;;;;;;;;523193;28;1393;-65
2023/01/25 11:13:33;;;;;;;13.32;11.93;;;;;;;;;;523120;28;1408;-66
2023/01/25 11:13:48;;;;;;;14.23;12.73;;;;;;;;;;523455;28;1298;-66
2023/01/25 11:14:16;;;;;;;13.43;12.03;;;;;;;;;;523292;28;954;-65
2023/01/25 11:14:32;;;;;;;13.60;12.20;;;;;;;;;;523254;28;1572;-66
2023/01/25 11:14:49;;;;;;;13.48;12.07;;;;;;;;;;522423;28;1315;-66
2023/01/25 11:15:23;;;;;;;13.30;11.85;;;;;;;;;;522158;28;1407;-66
2023/01/25 11:15:44;;;;;;;13.50;12.10;;;;;;;;;;521764;28;1329;-65
2023/01/25 11:16:00;;;;;;;13.90;12.50;;;;;;;;;;520173;28;1097;-66